createdAt,value
2022-12-29T00:05:27.490Z,1.44
2022-12-29T00:15:39.642Z,1.42
2022-12-29T00:26:02.084Z,1.35
2022-12-29T00:36:07.936Z,1.49
2022-12-29T00:46:19.388Z,1.48
2022-12-29T00:56:23.164Z,1.47
2022-12-29T01:06:27.636Z,1.42
2022-12-29T01:16:30.805Z,1.21
2022-12-29T01:26:35.527Z,1.27
2022-12-29T01:36:38.875Z,1.06
2022-12-29T01:46:45.281Z,1.15
2022-12-29T01:56:48.649Z,1.18
2022-12-29T02:06:56.028Z,1.19
2022-12-29T02:17:07.620Z,1.04
2022-12-29T02:27:40.478Z,1.16
2022-12-29T02:37:48.162Z,1.14
2022-12-29T02:47:56.733Z,1.10
2022-12-29T02:58:18.631Z,1.14
2022-12-29T03:08:25.970Z,1.02
2022-12-29T03:18:37.048Z,1.23
2022-12-29T03:28:42.566Z,1.10
2022-12-29T03:38:50.616Z,0.95
2022-12-29T03:48:53.735Z,1.22
2022-12-29T03:58:58.649Z,1.17
2022-12-29T04:09:02.244Z,1.06
2022-12-29T04:19:07.234Z,1.16
2022-12-29T04:29:11.110Z,1.41
2022-12-29T04:39:15.696Z,1.47
2022-12-29T04:49:18.773Z,1.22
2022-12-29T04:59:23.280Z,1.50
2022-12-29T05:09:26.383Z,1.64
2022-12-29T05:19:30.900Z,1.92
2022-12-29T05:29:33.982Z,1.72
2022-12-29T05:39:38.398Z,1.64
2022-12-29T05:49:41.477Z,1.70
2022-12-29T05:59:45.975Z,1.74
2022-12-29T06:09:49.066Z,1.67
2022-12-29T06:19:54.089Z,1.49
2022-12-29T06:29:57.262Z,1.87
2022-12-29T06:40:01.720Z,1.78
2022-12-29T06:50:05.417Z,1.73
2022-12-29T07:00:11.618Z,1.61
2022-12-29T07:10:14.810Z,1.81
2022-12-29T07:20:26.259Z,2.06
2022-12-29T07:30:30.026Z,2.49
2022-12-29T07:40:34.479Z,2.65
2022-12-29T07:50:38.051Z,2.83
2022-12-29T08:00:43.663Z,2.82
2022-12-29T08:10:46.748Z,2.94
2022-12-29T08:20:55.602Z,3.09
2022-12-29T08:31:00.283Z,3.27
2022-12-29T08:41:05.239Z,3.37
2022-12-29T08:51:08.744Z,3.32
2022-12-29T09:01:13.306Z,3.79
2022-12-29T09:11:27.610Z,3.99
2022-12-29T09:21:37.599Z,3.70
2022-12-29T09:31:43.220Z,3.97
2022-12-29T09:41:52.979Z,4.37
2022-12-29T09:51:58.766Z,4.58
2022-12-29T10:02:08.947Z,4.92
2022-12-29T10:12:24.637Z,5.03
2022-12-29T10:22:39.211Z,5.34
2022-12-29T10:32:48.964Z,4.85
2022-12-29T10:42:55.590Z,5.14
2022-12-29T10:53:00.359Z,4.76
2022-12-29T11:03:29.974Z,5.51
2022-12-29T11:13:38.999Z,5.77
2022-12-29T11:23:44.243Z,4.70
2022-12-29T11:33:48.204Z,5.36
2022-12-29T11:43:54.463Z,4.94
2022-12-29T11:54:00.352Z,5.26
2022-12-29T12:04:07.097Z,5.40
2022-12-29T12:14:17.892Z,5.25
2022-12-29T12:24:34.510Z,4.97
2022-12-29T12:34:40.263Z,4.89
2022-12-29T12:44:53.946Z,5.78
2022-12-29T12:55:10.136Z,6.55
2022-12-29T13:05:27.326Z,5.30
2022-12-29T13:15:42.962Z,5.93
2022-12-29T13:25:52.290Z,6.57
2022-12-29T13:35:59.917Z,5.99
2022-12-29T13:46:09.015Z,5.73
2022-12-29T13:56:15.325Z,6.03
2022-12-29T14:06:26.193Z,6.11
2022-12-29T14:16:34.746Z,6.12
2022-12-29T14:26:39.297Z,5.23
2022-12-29T14:36:43.828Z,4.39
2022-12-29T14:46:57.653Z,4.02
2022-12-29T14:57:01.771Z,4.96
2022-12-29T15:07:09.778Z,4.12
2022-12-29T15:17:26.011Z,4.60
2022-12-29T15:27:31.270Z,4.60
2022-12-29T15:37:37.011Z,4.47
2022-12-29T15:47:42.461Z,4.27
2022-12-29T15:57:45.852Z,4.21
2022-12-29T16:07:58.374Z,4.05
2022-12-29T16:18:01.822Z,4.05
2022-12-29T16:28:18.184Z,4.01
2022-12-29T16:38:23.411Z,3.80
2022-12-29T16:48:29.206Z,3.84
2022-12-29T16:58:32.884Z,3.78
2022-12-29T17:08:43.233Z,3.64
2022-12-29T17:18:46.346Z,3.55
2022-12-29T17:28:50.778Z,3.44
2022-12-29T17:38:53.908Z,3.09
2022-12-29T17:48:58.779Z,3.30
2022-12-29T17:59:01.957Z,2.94
2022-12-29T18:09:08.665Z,2.83
2022-12-29T18:19:12.521Z,2.89
2022-12-29T18:29:16.903Z,2.86
2022-12-29T18:39:24.155Z,2.65
2022-12-29T18:49:31.361Z,2.83
2022-12-29T18:59:34.513Z,2.70
2022-12-29T19:09:39.208Z,2.43
2022-12-29T19:19:42.841Z,2.66
2022-12-29T19:29:47.461Z,2.35
2022-12-29T19:39:50.775Z,2.42
2022-12-29T19:49:55.377Z,2.39
2022-12-29T19:59:59.318Z,2.38
2022-12-29T20:10:04.080Z,2.08
2022-12-29T20:20:08.923Z,2.21
2022-12-29T20:30:15.039Z,2.16
2022-12-29T20:40:18.278Z,1.96
2022-12-29T20:50:22.947Z,2.01
2022-12-29T21:00:26.163Z,1.79
2022-12-29T21:10:30.914Z,1.83
2022-12-29T21:20:33.957Z,1.70
2022-12-29T21:30:38.641Z,1.55
2022-12-29T21:40:41.758Z,1.66
2022-12-29T21:51:06.348Z,1.72
2022-12-29T22:01:35.818Z,1.62
2022-12-29T22:11:57.831Z,1.75
2022-12-29T22:22:00.972Z,1.58
2022-12-29T22:32:05.893Z,1.30
2022-12-29T22:42:09.465Z,1.37
2022-12-29T22:52:14.602Z,1.57
2022-12-29T23:02:17.847Z,1.74
2022-12-29T23:12:22.531Z,1.98
2022-12-29T23:22:25.605Z,1.98
2022-12-29T23:32:30.149Z,2.32
2022-12-29T23:42:33.343Z,2.53
2022-12-29T23:52:37.886Z,2.45
